Time;durP1;ratioP1;P1;durP2;ratioP2;P2;SDS_P1;SDS_P2;PMS_P1;PMS_P2;Temp;Humidity;BMP_temperature;BMP_pressure;BME280_temperature;BME280_humidity;BME280_pressure;Samples;Min_cycle;Max_cycle;Signal;HPM_P1;HPM_P2
2021/09/29 00:02:41;;;;;;;3.17;2.88;;;;;;;15.65;63.49;101477.66;10503900;28;20057;-79
2021/09/29 00:07:42;;;;;;;3.95;2.60;;;;;;;15.37;64.58;101477.13;10468821;28;20028;-79
2021/09/29 00:12:42;;;;;;;4.82;3.92;;;;;;;15.37;64.35;101467.03;10485525;28;20040;-80
2021/09/29 00:17:43;;;;;;;3.38;2.75;;;;;;;14.89;65.04;101408.22;10485368;28;20037;-79
2021/09/29 00:22:45;;;;;;;3.20;2.63;;;;;;;14.68;64.58;101386.69;10502337;28;20060;-79
2021/09/29 00:27:45;;;;;;;4.63;2.60;;;;;;;13.86;65.42;101254.53;10485465;28;20082;-78
2021/09/29 00:32:45;;;;;;;4.75;2.65;;;;;;;15.15;65.12;101438.38;10484930;28;20032;-79
2021/09/29 00:37:46;;;;;;;4.63;2.63;;;;;;;14.90;65.33;101373.63;10485267;28;20048;-79
2021/09/29 00:42:46;;;;;;;6.35;2.58;;;;;;;14.87;64.78;101372.16;10467668;28;20052;-79
2021/09/29 00:47:47;;;;;;;6.32;4.07;;;;;;;14.92;65.63;101411.59;10484118;28;20450;-79
2021/09/29 00:52:47;;;;;;;4.50;2.80;;;;;;;14.64;65.88;101353.56;10485047;28;20053;-78
2021/09/29 00:57:47;;;;;;;4.30;2.83;;;;;;;14.72;65.65;101347.03;10483856;28;20067;-79
2021/09/29 01:02:48;;;;;;;15.15;4.50;;;;;;;14.74;65.22;101369.47;10501924;28;20059;-78
2021/09/29 01:07:57;;;;;;;7.82;2.95;;;;;;;15.08;65.42;101379.22;10466712;28;20373;-79
2021/09/29 01:13:07;;;;;;;10.98;3.38;;;;;;;15.43;64.33;101380.75;10501166;28;20119;-78
2021/09/29 01:18:08;;;;;;;5.55;3.50;;;;;;;14.04;65.33;101183.94;10482311;28;20036;-78
2021/09/29 01:23:09;;;;;;;7.68;3.75;;;;;;;15.28;65.50;101367.38;10448932;28;20068;-79
2021/09/29 01:28:09;;;;;;;11.05;3.90;;;;;;;15.17;65.46;101351.69;10500775;28;20068;-79
2021/09/29 01:33:09;;;;;;;5.20;3.30;;;;;;;15.29;65.00;101348.06;10482359;28;20124;-79
2021/09/29 01:38:10;;;;;;;4.75;3.05;;;;;;;14.67;64.56;101220.59;10482090;28;20460;-79
2021/09/29 01:43:10;;;;;;;9.38;4.18;;;;;;;15.45;64.78;101335.81;10465340;28;20139;-80
2021/09/29 01:48:11;;;;;;;7.65;4.03;;;;;;;15.32;63.43;101246.69;10500148;28;20406;-79
2021/09/29 01:53:11;;;;;;;4.22;3.65;;;;;;;14.95;64.14;101242.91;10464831;28;20043;-78
2021/09/29 01:58:13;;;;;;;7.18;3.72;;;;;;;15.33;64.15;101329.38;10464875;28;20387;-79
2021/09/29 02:03:19;;;;;;;9.00;3.78;;;;;;;15.07;64.73;101284.81;10499155;28;20036;-79
2021/09/29 02:08:19;;;;;;;4.83;4.43;;;;;;;15.13;64.47;101250.38;10482159;28;20077;-79
2021/09/29 02:13:20;;;;;;;7.30;3.58;;;;;;;15.01;64.03;101231.13;10499455;28;20162;-79
2021/09/29 02:18:20;;;;;;;9.93;3.05;;;;;;;15.76;63.18;101291.31;10480918;28;20040;-78
2021/09/29 02:23:21;;;;;;;6.10;3.50;;;;;;;16.02;62.16;101265.66;10480475;28;20476;-78
2021/09/29 02:28:21;;;;;;;4.72;3.22;;;;;;;15.86;62.08;101244.41;10498374;28;20105;-78
2021/09/29 02:33:22;;;;;;;4.45;3.47;;;;;;;14.96;61.54;101091.84;10479978;28;20484;-79
2021/09/29 02:38:22;;;;;;;12.52;3.97;;;;;;;16.28;61.14;101278.22;10498065;28;20041;-79
2021/09/29 02:43:23;;;;;;;5.78;3.13;;;;;;;14.77;60.51;100994.69;10498851;28;20056;-78
2021/09/29 02:48:23;;;;;;;2.92;2.70;;;;;;;16.73;60.55;101293.50;10482216;28;20032;-78
2021/09/29 02:53:28;;;;;;;10.38;4.10;;;;;;;15.93;62.10;101280.66;10498378;28;20044;-76
2021/09/29 02:58:29;;;;;;;4.10;3.63;;;;;;;15.47;65.25;101283.72;10498252;28;20071;-75
2021/09/29 03:03:29;;;;;;;3.15;2.78;;;;;;;13.95;68.11;101147.91;10497856;28;20073;-75
2021/09/29 03:08:30;;;;;;;4.53;3.25;;;;;;;15.08;67.25;101264.66;10480393;28;20036;-75
2021/09/29 03:13:30;;;;;;;7.85;3.15;;;;;;;15.15;67.96;101252.88;10498704;28;20385;-75
2021/09/29 03:18:30;;;;;;;6.53;3.92;;;;;;;15.39;66.39;101264.91;10498290;28;20028;-75
2021/09/29 03:23:31;;;;;;;5.30;3.55;;;;;;;15.29;67.20;101260.75;10499911;28;20453;-76
2021/09/29 03:28:31;;;;;;;7.55;3.33;;;;;;;15.23;67.15;101219.88;10497018;28;20051;-74
2021/09/29 03:33:32;;;;;;;4.85;3.35;;;;;;;15.07;67.52;101211.16;10479380;28;20118;-75
2021/09/29 03:38:32;;;;;;;7.97;3.30;;;;;;;14.38;67.82;101100.19;10497369;28;20067;-74
2021/09/29 03:43:32;;;;;;;12.10;3.55;;;;;;;15.35;66.37;101213.50;10486487;28;20076;-74
2021/09/29 03:48:33;;;;;;;7.72;3.42;;;;;;;15.71;65.74;101225.59;10503676;28;20059;-75
2021/09/29 03:53:33;;;;;;;4.20;3.05;;;;;;;15.31;67.04;101189.59;10503110;28;20096;-75
2021/09/29 03:58:34;;;;;;;10.10;2.75;;;;;;;15.42;66.60;101177.13;10503525;28;20471;-75
2021/09/29 04:03:34;;;;;;;4.72;2.72;;;;;;;15.40;66.61;101185.53;10503534;28;20118;-74
2021/09/29 04:08:34;;;;;;;7.50;3.00;;;;;;;15.27;67.04;101182.91;10485422;28;20040;-75
2021/09/29 04:13:35;;;;;;;11.57;3.08;;;;;;;15.54;67.44;101213.56;10503550;28;20498;-75
2021/09/29 04:18:35;;;;;;;8.05;3.60;;;;;;;15.12;67.25;101125.94;10485302;28;20056;-75
2021/09/29 04:23:38;;;;;;;8.05;2.85;;;;;;;15.57;66.71;101181.19;10501846;28;20127;-75
2021/09/29 04:28:38;;;;;;;3.33;2.40;;;;;;;15.61;67.32;101205.31;10502462;28;20380;-75
2021/09/29 04:33:38;;;;;;;9.18;3.75;;;;;;;15.65;66.99;101181.97;10446636;28;20045;-75
2021/09/29 04:38:39;;;;;;;11.65;3.72;;;;;;;15.62;66.54;101164.13;10484780;28;20044;-74
2021/09/29 04:43:39;;;;;;;5.93;3.08;;;;;;;15.55;67.32;101188.75;10483298;28;20056;-74
2021/09/29 04:48:40;;;;;;;7.13;3.80;;;;;;;15.73;66.13;101185.28;10501352;28;20045;-74
2021/09/29 04:53:40;;;;;;;3.60;2.88;;;;;;;15.79;65.83;101169.88;10500082;28;20028;-75
2021/09/29 04:58:43;;;;;;;3.97;2.83;;;;;;;15.51;66.33;101176.63;10501022;28;20048;-75
2021/09/29 05:03:43;;;;;;;3.97;2.38;;;;;;;15.68;66.42;101181.53;10501073;28;20036;-75
2021/09/29 05:08:45;;;;;;;11.00;3.42;;;;;;;15.59;65.96;101145.47;10501213;28;20036;-75
2021/09/29 05:13:46;;;;;;;4.65;2.80;;;;;;;15.56;66.08;101135.00;10482479;28;20044;-77
2021/09/29 05:18:47;;;;;;;2.45;2.25;;;;;;;15.52;65.85;101126.44;10500602;28;20460;-76
2021/09/29 05:23:47;;;;;;;2.85;2.55;;;;;;;14.80;65.62;101008.72;10498450;28;20499;-75
2021/09/29 05:28:55;;;;;;;3.92;2.28;;;;;;;15.89;65.39;101150.22;10500190;28;20392;-75
2021/09/29 05:33:55;;;;;;;4.13;1.90;;;;;;;15.80;66.05;101174.28;10500784;28;20089;-75
2021/09/29 05:38:56;;;;;;;6.15;2.55;;;;;;;15.22;67.03;101115.38;10482488;28;20610;-75
2021/09/29 05:43:56;;;;;;;2.65;2.42;;;;;;;15.59;67.16;101191.88;10499661;28;20403;-75
2021/09/29 05:48:57;;;;;;;5.55;2.55;;;;;;;15.08;68.53;101139.19;10498442;28;20027;-75
2021/09/29 05:53:57;;;;;;;6.68;2.58;;;;;;;15.68;66.49;101184.28;10499073;28;20468;-75
2021/09/29 05:58:58;;;;;;;5.55;3.33;;;;;;;15.67;67.00;101185.34;10482415;28;20068;-75
2021/09/29 06:03:58;;;;;;;2.55;2.35;;;;;;;14.98;67.53;101100.66;10498378;28;20033;-76
2021/09/29 06:08:58;;;;;;;5.60;3.03;;;;;;;15.81;66.19;101181.41;10498678;28;20135;-76
2021/09/29 06:14:02;;;;;;;5.18;2.80;;;;;;;14.82;66.29;101016.69;10498697;28;20037;-75
2021/09/29 06:19:02;;;;;;;12.23;3.17;;;;;;;15.92;66.31;101193.47;10497808;28;20028;-75
2021/09/29 06:24:03;;;;;;;4.65;2.15;;;;;;;15.37;66.86;101119.66;10463162;28;20078;-75
2021/09/29 06:29:03;;;;;;;3.53;2.17;;;;;;;15.05;66.66;101085.06;10497783;28;20034;-76
2021/09/29 06:34:04;;;;;;;3.60;2.35;;;;;;;15.89;66.56;101208.44;10497968;28;20064;-75
2021/09/29 06:39:04;;;;;;;2.33;1.75;;;;;;;14.97;66.12;101049.91;10480021;28;20037;-76
2021/09/29 06:44:05;;;;;;;1.13;1.10;;;;;;;15.89;65.93;101191.19;10497559;28;20044;-75
2021/09/29 06:49:05;;;;;;;2.92;2.00;;;;;;;16.09;65.54;101204.66;10497357;28;20443;-76
2021/09/29 06:54:06;;;;;;;3.92;1.40;;;;;;;16.01;65.83;101205.78;10498518;28;20174;-75
2021/09/29 06:59:06;;;;;;;1.25;1.20;;;;;;;15.94;66.20;101227.69;10497558;28;20499;-75
2021/09/29 07:04:06;;;;;;;3.42;1.42;;;;;;;15.68;66.48;101201.47;10498131;28;20039;-75
2021/09/29 07:09:08;;;;;;;2.72;1.80;;;;;;;15.90;66.56;101239.31;10463635;28;20033;-76
2021/09/29 07:14:08;;;;;;;5.55;1.45;;;;;;;15.87;66.71;101256.97;10499103;28;20040;-76
2021/09/29 07:19:09;;;;;;;9.10;2.42;;;;;;;15.65;67.01;101258.41;10470314;28;20408;-77
2021/09/29 07:24:09;;;;;;;7.85;1.98;;;;;;;15.09;68.74;101255.44;10504977;28;20040;-78
2021/09/29 07:29:10;;;;;;;1.70;1.42;;;;;;;14.68;69.85;101249.53;10505115;28;20128;-77
2021/09/29 07:34:12;;;;;;;1.45;1.02;;;;;;;14.32;70.72;101259.88;10486694;28;20029;-78
2021/09/29 07:39:12;;;;;;;2.15;0.98;;;;;;;14.47;70.19;101270.56;10505332;28;20097;-77
2021/09/29 07:44:13;;;;;;;1.73;1.00;;;;;;;14.18;71.37;101264.53;10505074;28;20401;-80
2021/09/29 07:49:15;;;;;;;5.72;1.20;;;;;;;13.09;70.59;101079.19;10486491;28;20040;-79
2021/09/29 07:54:15;;;;;;;4.05;1.35;;;;;;;14.35;70.59;101275.81;10504804;28;20040;-79
2021/09/29 07:59:15;;;;;;;1.65;1.55;;;;;;;13.76;69.52;101167.88;10504659;28;20041;-79
2021/09/29 08:04:19;;;;;;;5.55;1.42;;;;;;;13.87;69.87;101185.41;10486686;28;20035;-78
2021/09/29 08:09:20;;;;;;;9.73;3.25;;;;;;;14.68;69.49;101290.41;10504354;28;20044;-79
2021/09/29 08:14:26;;;;;;;4.70;1.73;;;;;;;14.13;69.48;101174.44;10504841;28;20036;-80
2021/09/29 08:19:27;;;;;;;2.58;1.92;;;;;;;14.81;69.20;101274.03;10504181;28;20108;-80
2021/09/29 08:24:36;;;;;;;1.67;1.58;;;;;;;15.00;68.94;101283.19;10485502;28;20040;-79
2021/09/29 08:35:10;;;;;;;1.95;1.83;;;;;;;15.08;67.89;101288.38;10502882;28;20076;-80
2021/09/29 08:40:14;;;;;;;8.63;2.80;;;;;;;15.43;68.06;101294.25;10500853;28;20036;-77
2021/09/29 08:45:23;;;;;;;5.03;2.42;;;;;;;14.54;68.38;101194.25;10485575;28;20049;-80
2021/09/29 08:50:38;;;;;;;1.55;1.33;;;;;;;14.42;67.87;101134.09;10486013;28;20032;-79
2021/09/29 09:16:45;;;;;;;4.55;2.25;;;;;;;13.61;68.92;101104.66;10500522;28;20056;-79
2021/09/29 09:21:52;;;;;;;3.35;2.20;;;;;;;15.31;68.35;101348.66;10499466;28;20442;-78
2021/09/29 09:27:07;;;;;;;3.88;2.95;;;;;;;14.35;68.61;101191.34;10499804;28;20033;-77
2021/09/29 09:32:08;;;;;;;6.97;1.98;;;;;;;15.21;68.54;101322.91;10500377;28;20047;-77
2021/09/29 09:37:15;;;;;;;3.15;2.78;;;;;;;15.51;68.47;101353.22;10481232;28;20033;-79
2021/09/29 09:42:16;;;;;;;;;;;;;;;15.63;68.59;101361.50;10483137;28;20060;-79
2021/09/29 09:47:20;;;;;;;5.50;2.17;;;;;;;15.58;67.86;101360.28;10499710;28;19916;-80
2021/09/29 09:52:33;;;;;;;4.30;1.88;;;;;;;14.86;67.75;101250.50;10482471;28;20392;-80
2021/09/29 09:57:36;;;;;;;3.13;1.52;;;;;;;15.37;67.41;101357.88;10499470;28;20055;-80
2021/09/29 10:02:40;;;;;;;3.70;1.65;;;;;;;15.26;67.52;101380.41;10481602;28;20025;-80
2021/09/29 10:07:40;;;;;;;5.80;2.65;;;;;;;14.59;67.26;101252.50;10464932;28;20197;-79
2021/09/29 10:28:13;;;;;;;5.50;1.88;;;;;;;16.34;63.80;101417.78;10498786;28;20094;-80
2021/09/29 10:33:23;;;;;;;12.00;2.30;;;;;;;16.50;62.78;101412.56;10480617;28;20032;-81
2021/09/29 10:43:31;;;;;;;4.97;1.90;;;;;;;17.79;60.68;101444.63;10498394;28;20463;-81
2021/09/29 11:31:04;;;;;;;1.05;0.80;;;;;;;19.47;51.00;101500.03;10505884;28;20036;-79
2021/09/29 12:08:08;;;;;;;0.95;0.80;;;;;;;19.46;49.61;101419.56;10503782;28;20044;-78
2021/09/29 12:13:09;;;;;;;2.03;1.33;;;;;;;20.18;48.04;101550.97;10487062;28;20040;-77
2021/09/29 12:18:13;;;;;;;3.05;1.70;;;;;;;21.08;47.79;101452.03;10504148;28;20269;-78
2021/09/29 12:23:13;;;;;;;2.83;1.45;;;;;;;21.28;44.84;101558.91;10503580;28;20028;-78
2021/09/29 12:33:34;;;;;;;1.27;1.08;;;;;;;20.02;46.90;101469.28;10484961;28;20044;-80
2021/09/29 12:38:36;;;;;;;3.15;1.13;;;;;;;19.71;47.52;101555.78;10484387;28;20041;-79
2021/09/29 12:43:36;;;;;;;2.40;1.40;;;;;;;19.67;46.61;101606.81;10500059;28;20110;-77
2021/09/29 12:48:41;;;;;;;0.82;0.82;;;;;;;20.34;46.65;101592.53;10483405;28;20130;-78
2021/09/29 12:53:55;;;;;;;1.17;1.02;;;;;;;18.91;45.84;101559.16;10501277;28;20495;-79
2021/09/29 12:58:55;;;;;;;5.05;1.63;;;;;;;18.74;48.79;101620.22;10501567;28;20091;-78
2021/09/29 13:03:56;;;;;;;2.22;1.20;;;;;;;19.07;49.03;101618.84;10502100;28;20071;-78
2021/09/29 13:08:56;;;;;;;1.45;0.73;;;;;;;19.18;49.01;101612.53;10502884;28;20491;-78
2021/09/29 13:13:56;;;;;;;3.85;1.80;;;;;;;19.04;46.68;101598.19;10500360;28;20049;-78
2021/09/29 13:19:03;;;;;;;7.32;1.20;;;;;;;19.35;47.92;101639.28;10466940;28;20032;-79
2021/09/29 13:24:18;;;;;;;1.95;1.55;;;;;;;20.53;45.35;101649.06;10500887;28;20039;-78
2021/09/29 13:39:57;;;;;;;1.05;1.00;;;;;;;17.54;51.17;101633.66;10500231;28;20476;-79
2021/09/29 13:45:00;;;;;;;1.10;1.10;;;;;;;17.94;51.30;101567.53;10499931;28;20143;-78
2021/09/29 13:50:00;;;;;;;2.63;1.10;;;;;;;19.66;48.79;101696.66;10499943;28;20442;-79
2021/09/29 13:55:05;;;;;;;4.30;1.85;;;;;;;19.71;44.40;101704.19;10500498;28;20040;-78
2021/09/29 14:37:02;;;;;;;1.08;0.60;;;;;;;16.34;47.03;101634.53;10482407;28;20045;-78
2021/09/29 14:42:02;;;;;;;1.35;1.25;;;;;;;16.33;49.38;101780.44;10465227;28;20499;-78
2021/09/29 14:47:10;;;;;;;1.50;1.27;;;;;;;15.13;51.33;101643.19;10482626;28;20167;-78
2021/09/29 14:52:11;;;;;;;3.15;1.65;;;;;;;16.18;51.89;101794.38;10467042;28;20392;-78
2021/09/29 14:57:11;;;;;;;6.32;1.80;;;;;;;16.25;52.20;101728.75;10464318;28;20032;-78
2021/09/29 15:02:14;;;;;;;1.75;1.40;;;;;;;16.60;53.26;101800.34;10498428;28;20079;-79
2021/09/29 15:07:14;;;;;;;2.22;1.40;;;;;;;16.04;53.16;101766.22;10464504;28;20032;-78
2021/09/29 15:12:15;;;;;;;2.30;1.52;;;;;;;16.26;53.55;101788.66;10481028;28;20039;-78
2021/09/29 15:17:25;;;;;;;1.73;1.63;;;;;;;16.53;52.43;101802.28;10498941;28;20035;-78
2021/09/29 15:59:25;;;;;;;4.47;1.15;;;;;;;14.35;56.20;101874.41;10504987;28;20373;-78
2021/09/29 16:15:21;;;;;;;3.38;2.10;;;;;;;14.98;58.00;101825.28;10474666;28;20446;-80
2021/09/29 16:35:53;;;;;;;2.55;2.13;;;;;;;12.98;63.50;101929.69;10484711;28;20083;-78
2021/09/29 16:40:54;;;;;;;5.22;2.47;;;;;;;12.73;65.63;101912.84;10502117;28;20060;-79
2021/09/29 16:45:56;;;;;;;5.95;2.20;;;;;;;13.00;63.94;101937.66;10484693;28;20095;-80
2021/09/29 16:55:58;;;;;;;5.47;2.30;;;;;;;13.13;62.45;101878.00;10502390;28;20079;-79
2021/09/29 17:01:07;;;;;;;2.72;1.67;;;;;;;13.86;61.26;101943.34;10467674;28;20032;-79
2021/09/29 17:06:08;;;;;;;8.02;2.30;;;;;;;13.81;61.12;101943.91;10502376;28;20036;-80
2021/09/29 17:11:10;;;;;;;6.57;2.13;;;;;;;13.07;62.30;101812.66;10501809;28;20033;-80
2021/09/29 17:16:12;;;;;;;2.53;1.65;;;;;;;14.08;62.29;101980.44;10502466;28;20048;-81
2021/09/29 17:21:16;;;;;;;8.38;2.95;;;;;;;13.13;61.79;101849.97;10499785;28;20094;-79
2021/09/29 17:26:16;;;;;;;15.88;2.22;;;;;;;13.75;62.35;101981.94;10483187;28;20522;-79
2021/09/29 17:31:21;;;;;;;1.67;1.42;;;;;;;13.66;61.40;101995.69;10500109;28;20082;-80
2021/09/29 17:57:12;;;;;;;1.95;1.30;;;;;;;13.09;59.45;101897.63;10499191;28;20040;-79
2021/09/29 18:02:22;;;;;;;9.13;1.80;;;;;;;14.01;59.25;102060.34;10464404;28;20045;-79
2021/09/29 18:12:23;;;;;;;7.03;2.22;;;;;;;14.20;60.22;102067.94;10498646;28;20389;-79
2021/09/29 18:17:23;;;;;;;8.18;2.35;;;;;;;13.38;62.06;102090.75;10499101;28;20037;-79
2021/09/29 18:22:24;;;;;;;9.85;1.73;;;;;;;12.97;63.83;102082.13;10480613;28;20039;-81
2021/09/29 18:27:24;;;;;;;8.80;2.00;;;;;;;11.13;64.93;101789.84;10481503;28;20107;-81
2021/09/29 18:32:26;;;;;;;6.97;2.33;;;;;;;12.91;66.65;102131.81;10498706;28;20036;-80
2021/09/29 18:37:26;;;;;;;2.38;1.77;;;;;;;12.54;65.62;102120.72;10481091;28;20189;-81
2021/09/29 18:42:26;;;;;;;5.22;1.55;;;;;;;12.33;65.16;102107.78;10498761;28;20136;-80
2021/09/29 18:47:27;;;;;;;5.75;1.88;;;;;;;12.48;65.59;102134.19;10465380;28;20437;-81
2021/09/29 18:52:27;;;;;;;1.48;1.38;;;;;;;12.34;65.42;102104.03;10499037;28;20037;-81
2021/09/29 18:57:44;;;;;;;2.15;1.25;;;;;;;12.68;64.62;102135.38;10482262;28;20090;-82
2021/09/29 19:08:10;;;;;;;1.33;1.10;;;;;;;12.99;63.27;102148.06;10498261;28;20079;-81
2021/09/29 19:13:10;;;;;;;4.93;1.52;;;;;;;12.91;63.89;102197.06;10488245;28;20040;-81
2021/09/29 19:18:11;;;;;;;4.22;2.13;;;;;;;12.42;67.26;102184.66;10507847;28;20072;-81
2021/09/29 19:23:12;;;;;;;15.00;1.48;;;;;;;12.28;67.56;102185.38;10487744;28;20033;-82
2021/09/29 19:28:24;;;;;;;7.90;1.73;;;;;;;12.08;68.11;102179.53;10471723;28;20047;-80
2021/09/29 19:33:25;;;;;;;6.00;1.80;;;;;;;12.27;67.29;102192.69;10505267;28;20056;-82
2021/09/29 19:38:26;;;;;;;5.93;1.65;;;;;;;11.93;67.40;102089.00;10505556;28;20078;-80
2021/09/29 19:43:27;;;;;;;2.80;1.90;;;;;;;11.80;65.87;102030.66;10504442;28;20063;-80
2021/09/29 20:09:30;;;;;;;12.43;2.45;;;;;;;12.73;64.96;102167.44;10489083;28;20040;-79
2021/09/29 20:14:30;;;;;;;4.57;2.50;;;;;;;12.95;65.92;102182.06;10503712;28;20033;-80
2021/09/29 20:19:31;;;;;;;4.63;2.80;;;;;;;12.71;67.03;102143.19;10470070;28;20114;-81
2021/09/29 20:24:33;;;;;;;21.60;3.22;;;;;;;12.19;67.32;102035.22;10469150;28;20036;-81
2021/09/29 20:29:33;;;;;;;4.32;2.78;;;;;;;13.35;66.58;102188.25;10485383;28;20124;-81
2021/09/29 20:44:59;;;;;;;4.50;2.03;;;;;;;13.57;65.65;102206.38;10486739;28;20061;-80
2021/09/29 20:49:59;;;;;;;4.57;2.58;;;;;;;13.44;65.32;102192.56;10501831;28;20036;-80
2021/09/29 20:55:00;;;;;;;5.78;2.75;;;;;;;13.11;66.32;102132.13;10467266;28;20413;-81
2021/09/29 21:00:01;;;;;;;7.78;2.60;;;;;;;13.37;65.61;102187.03;10502333;28;20048;-80
2021/09/29 21:05:01;;;;;;;7.38;3.25;;;;;;;13.05;65.08;102117.44;10483494;28;20048;-81
2021/09/29 21:10:05;;;;;;;7.38;2.22;;;;;;;13.54;65.93;102214.91;10484551;28;20047;-81
2021/09/29 21:20:10;;;;;;;5.32;1.98;;;;;;;13.69;63.45;102231.28;10483108;28;20396;-80
2021/09/29 21:25:10;;;;;;;2.92;1.55;;;;;;;13.10;65.03;102212.88;10465883;28;20029;-81
2021/09/29 21:30:12;;;;;;;6.57;1.83;;;;;;;12.16;65.71;102076.31;10500466;28;20120;-80
2021/09/29 21:35:17;;;;;;;3.40;1.75;;;;;;;12.42;64.72;102110.47;10500147;28;20036;-80
2021/09/29 22:17:19;;;;;;;8.07;2.80;;;;;;;14.22;64.08;102289.25;10499281;28;20032;-79
2021/09/29 22:33:18;;;;;;;8.65;1.65;;;;;;;14.31;63.38;102298.19;10498408;28;20400;-80
2021/09/29 22:55:26;;;;;;;4.07;2.22;;;;;;;14.31;62.68;102317.25;10495482;28;20045;-80
2021/09/29 23:10:29;;;;;;;3.67;1.85;;;;;;;13.63;62.63;102256.53;10511931;28;20040;-80
2021/09/29 23:36:46;;;;;;;12.27;2.05;;;;;;;12.19;63.82;102138.44;10510896;28;20040;-79
2021/09/29 23:41:47;;;;;;;16.50;2.63;;;;;;;13.28;63.83;102326.03;10510076;28;20082;-79
2021/09/29 23:46:48;;;;;;;11.30;2.90;;;;;;;13.25;63.16;102327.25;10476083;28;20123;-79
2021/09/29 23:51:49;;;;;;;2.60;1.90;;;;;;;13.15;63.46;102329.31;10510317;28;20131;-79
2021/09/29 23:56:49;;;;;;;14.38;3.20;;;;;;;13.02;63.62;102332.63;10507364;28;20035;-79
